Time;durP1;ratioP1;P1;durP2;ratioP2;P2;SDS_P1;SDS_P2;PMS_P1;PMS_P2;Temp;Humidity;BMP_temperature;BMP_pressure;BME280_temperature;BME280_humidity;BME280_pressure;Samples;Min_cycle;Max_cycle;Signal;HPM_P1;HPM_P2
2023/05/25 00:00:17;;;;;;;6.47;5.50;;;15.50;99.90;;;;;;4985166;28;20121;-71
2023/05/25 00:02:47;;;;;;;9.40;5.57;;;15.50;99.90;;;;;;4990247;28;20049;-73
2023/05/25 00:05:17;;;;;;;;;;;15.60;99.90;;;;;;4986987;28;20112;-65
2023/05/25 00:07:44;;;;;;;7.47;6.45;;;15.50;99.90;;;;;;4985152;28;20020;-66
2023/05/25 00:10:11;;;;;;;7.78;6.28;;;15.50;99.90;;;;;;4985298;28;20050;-68
2023/05/25 00:12:39;;;;;;;10.20;6.35;;;15.50;99.90;;;;;;4988057;28;20840;-69
2023/05/25 00:15:06;;;;;;;7.40;6.07;;;15.40;99.90;;;;;;4987777;28;20181;-67
2023/05/25 00:17:35;;;;;;;6.63;5.88;;;15.40;99.90;;;;;;4985684;28;20042;-75
2023/05/25 00:20:06;;;;;;;7.55;5.60;;;15.40;99.90;;;;;;4985663;28;20152;-66
2023/05/25 00:22:37;;;;;;;6.05;5.45;;;15.30;99.90;;;;;;4985050;28;20101;-71
2023/05/25 00:25:05;;;;;;;7.47;6.78;;;15.30;99.90;;;;;;4982988;28;20320;-66
2023/05/25 00:27:32;;;;;;;6.70;6.10;;;15.20;99.90;;;;;;4985471;28;20729;-65
2023/05/25 00:29:59;;;;;;;9.20;5.75;;;15.10;99.90;;;;;;4983759;28;20413;-69
2023/05/25 00:32:26;;;;;;;7.30;6.70;;;15.10;99.90;;;;;;4986435;28;20086;-66
2023/05/25 00:34:54;;;;;;;9.40;6.35;;;15.10;99.90;;;;;;4982312;28;20053;-66
2023/05/25 00:37:21;;;;;;;8.07;6.10;;;15.00;99.90;;;;;;4986352;28;20045;-65
2023/05/25 00:39:48;;;;;;;6.70;5.93;;;15.00;99.90;;;;;;4982862;28;20046;-66
2023/05/25 00:42:15;;;;;;;6.78;6.15;;;15.00;99.90;;;;;;4985687;28;20054;-64
2023/05/25 00:44:42;;;;;;;7.82;6.80;;;15.00;99.90;;;;;;5000543;28;20169;-67
2023/05/25 00:47:10;;;;;;;7.20;6.35;;;14.90;99.90;;;;;;4987057;28;20054;-65
2023/05/25 00:49:37;;;;;;;7.60;6.90;;;14.90;99.90;;;;;;4983408;28;20052;-66
2023/05/25 00:52:05;;;;;;;9.52;6.45;;;15.00;99.90;;;;;;4984767;28;20662;-70
2023/05/25 00:54:33;;;;;;;8.15;7.05;;;15.00;99.90;;;;;;4990532;28;20062;-65
2023/05/25 00:57:06;;;;;;;9.15;6.75;;;14.90;99.90;;;;;;4984831;28;20078;-63
2023/05/25 00:59:50;;;;;;;8.60;7.80;;;14.90;99.90;;;;;;4986729;28;20066;-66
2023/05/25 01:02:18;;;;;;;8.10;7.40;;;14.90;99.90;;;;;;4984324;28;20046;-66
2023/05/25 01:04:52;;;;;;;7.75;6.97;;;14.90;99.90;;;;;;4982757;28;20057;-66
2023/05/25 01:07:25;;;;;;;7.55;6.35;;;15.00;99.90;;;;;;4985988;28;20054;-64
2023/05/25 01:10:01;;;;;;;8.65;7.75;;;14.90;99.90;;;;;;4984257;28;20128;-70
2023/05/25 01:12:29;;;;;;;9.07;8.18;;;14.90;99.90;;;;;;4981119;28;20055;-65
2023/05/25 01:14:56;;;;;;;8.02;7.22;;;14.80;99.90;;;;;;4987551;28;20626;-73
2023/05/25 01:17:25;;;;;;;9.18;6.38;;;14.80;99.90;;;;;;4982376;28;20760;-64
2023/05/25 01:19:52;;;;;;;9.45;7.03;;;14.80;99.90;;;;;;4985190;28;20081;-63
2023/05/25 01:22:54;;;;;;;7.45;6.55;;;14.70;99.90;;;;;;4983227;28;20066;-64
2023/05/25 01:25:26;;;;;;;7.72;7.03;;;14.70;99.90;;;;;;4999791;28;20053;-66
2023/05/25 01:28:05;;;;;;;8.68;7.80;;;14.70;99.90;;;;;;4985703;28;20064;-63
2023/05/25 01:30:36;;;;;;;7.10;6.50;;;14.80;99.90;;;;;;5000415;28;20065;-63
2023/05/25 01:33:05;;;;;;;9.07;6.25;;;14.80;99.90;;;;;;4985656;28;20053;-63
2023/05/25 01:35:35;;;;;;;7.68;6.90;;;14.80;99.90;;;;;;4980805;28;20083;-71
2023/05/25 01:38:02;;;;;;;8.00;7.20;;;14.80;99.90;;;;;;4985129;28;20056;-64
2023/05/25 01:40:29;;;;;;;9.32;7.53;;;14.80;99.90;;;;;;4980790;28;20062;-62
2023/05/25 01:42:59;;;;;;;8.25;7.18;;;14.90;99.90;;;;;;4986917;28;20054;-63
2023/05/25 01:45:27;;;;;;;7.15;6.55;;;14.90;99.90;;;;;;4983981;28;20113;-72
2023/05/25 01:47:53;;;;;;;10.18;8.25;;;14.90;99.90;;;;;;4982080;28;20046;-62
2023/05/25 01:50:28;;;;;;;8.30;7.55;;;14.90;99.90;;;;;;4979845;28;20467;-66
2023/05/25 01:53:02;;;;;;;7.65;6.95;;;14.90;99.90;;;;;;4998461;28;20050;-62
2023/05/25 01:55:33;;;;;;;7.60;6.80;;;14.90;99.90;;;;;;4977335;28;20133;-64
2023/05/25 01:58:01;;;;;;;7.38;6.57;;;14.90;99.90;;;;;;4981416;28;20468;-68
2023/05/25 02:00:32;;;;;;;8.57;7.68;;;15.00;99.90;;;;;;4997987;28;20054;-62
2023/05/25 02:03:00;;;;;;;10.00;8.02;;;15.00;99.90;;;;;;4984960;28;20141;-65
2023/05/25 02:05:27;;;;;;;11.75;7.20;;;15.00;99.90;;;;;;4983517;28;20042;-65
2023/05/25 02:07:54;;;;;;;7.20;6.53;;;15.00;99.90;;;;;;4998602;28;20500;-66
2023/05/25 02:10:21;;;;;;;7.95;7.05;;;15.00;99.90;;;;;;4987991;28;21021;-62
2023/05/25 02:12:48;;;;;;;8.30;7.13;;;15.00;99.90;;;;;;4998589;28;20046;-74
2023/05/25 02:15:16;;;;;;;12.13;8.30;;;15.00;99.90;;;;;;4985705;28;20839;-66
2023/05/25 02:17:44;;;;;;;8.70;7.40;;;15.00;99.90;;;;;;4982228;28;20062;-66
2023/05/25 02:20:12;;;;;;;8.63;7.82;;;14.90;99.90;;;;;;4986371;28;20109;-64
2023/05/25 02:22:39;;;;;;;10.15;6.90;;;14.90;99.90;;;;;;4997516;28;20628;-66
2023/05/25 02:25:07;;;;;;;10.82;8.10;;;14.90;99.90;;;;;;4987866;28;20132;-65
2023/05/25 02:27:35;;;;;;;8.98;6.22;;;14.90;99.90;;;;;;4988858;28;20716;-64
2023/05/25 02:30:02;;;;;;;7.50;6.75;;;14.80;99.90;;;;;;4985026;28;20121;-64
2023/05/25 02:32:30;;;;;;;9.25;6.85;;;14.80;99.90;;;;;;4986320;28;20051;-65
2023/05/25 02:34:57;;;;;;;8.55;7.65;;;14.80;99.90;;;;;;4988532;28;20050;-65
2023/05/25 02:37:24;;;;;;;10.48;7.60;;;14.80;99.90;;;;;;4985713;28;20062;-66
2023/05/25 02:39:51;;;;;;;9.73;8.18;;;14.70;99.90;;;;;;4983362;28;20065;-69
2023/05/25 02:42:19;;;;;;;12.55;7.55;;;14.70;99.90;;;;;;4981537;28;20367;-71
2023/05/25 02:44:47;;;;;;;8.48;7.78;;;14.70;99.90;;;;;;4982829;28;20100;-64
2023/05/25 02:47:15;;;;;;;8.52;7.68;;;14.70;99.90;;;;;;4973518;28;20066;-73
2023/05/25 02:49:42;;;;;;;11.95;8.60;;;14.70;99.90;;;;;;4969367;28;20500;-67
2023/05/25 02:52:09;;;;;;;8.60;7.90;;;14.70;99.90;;;;;;4983408;28;20058;-67
2023/05/25 02:54:36;;;;;;;12.43;7.88;;;14.60;99.90;;;;;;4998025;28;20055;-67
2023/05/25 02:57:05;;;;;;;7.95;7.15;;;14.60;99.90;;;;;;4992709;28;20058;-66
2023/05/25 02:59:32;;;;;;;8.82;7.50;;;14.50;99.90;;;;;;4984005;28;20496;-64
2023/05/25 03:01:59;;;;;;;7.95;7.25;;;14.50;99.90;;;;;;4982457;28;20047;-64
2023/05/25 03:04:27;;;;;;;8.98;7.68;;;14.50;99.90;;;;;;4985866;28;20062;-70
2023/05/25 03:06:55;;;;;;;11.07;8.07;;;14.40;99.90;;;;;;4986112;28;20058;-66
2023/05/25 03:09:22;;;;;;;8.57;7.78;;;14.40;99.90;;;;;;4984801;28;20061;-74
2023/05/25 03:11:49;;;;;;;8.00;7.28;;;14.40;99.90;;;;;;4985163;28;20073;-69
2023/05/25 03:14:19;;;;;;;9.52;7.68;;;14.40;99.90;;;;;;5006208;28;20050;-67
2023/05/25 03:16:58;;;;;;;9.05;8.32;;;14.30;99.90;;;;;;4984309;28;20583;-69
2023/05/25 03:19:26;;;;;;;8.65;7.75;;;14.30;99.90;;;;;;4983131;28;20164;-71
2023/05/25 03:21:53;;;;;;;8.23;7.43;;;14.30;99.90;;;;;;4987790;28;20100;-68
2023/05/25 03:24:20;;;;;;;8.32;7.13;;;14.30;99.90;;;;;;4999351;28;20046;-68
2023/05/25 03:26:47;;;;;;;8.07;7.30;;;14.30;99.90;;;;;;4994311;28;20049;-64
2023/05/25 03:29:15;;;;;;;8.20;7.32;;;14.30;99.90;;;;;;4988965;28;20057;-70
2023/05/25 03:31:42;;;;;;;8.82;7.50;;;14.40;99.90;;;;;;4985041;28;20579;-64
2023/05/25 03:34:09;;;;;;;7.78;6.93;;;14.40;99.90;;;;;;4988142;28;20466;-70
2023/05/25 03:36:37;;;;;;;7.88;7.07;;;14.40;99.90;;;;;;4986901;28;20046;-65
2023/05/25 03:39:05;;;;;;;8.02;6.90;;;14.40;99.90;;;;;;4988064;28;20463;-71
2023/05/25 03:41:32;;;;;;;7.82;7.03;;;14.40;99.90;;;;;;4989103;28;20053;-69
2023/05/25 03:43:59;;;;;;;8.13;7.07;;;14.40;99.90;;;;;;4986185;28;20086;-64
2023/05/25 03:46:26;;;;;;;8.95;8.13;;;14.40;99.90;;;;;;4988206;28;20477;-66
2023/05/25 03:48:56;;;;;;;8.02;7.32;;;14.40;99.90;;;;;;4988497;28;20054;-68
2023/05/25 03:51:23;;;;;;;7.57;6.88;;;14.40;99.90;;;;;;5005017;28;20061;-66
2023/05/25 03:53:50;;;;;;;7.35;6.70;;;14.40;99.90;;;;;;4987820;28;20070;-67
2023/05/25 03:56:17;;;;;;;8.90;8.10;;;14.40;99.90;;;;;;5001333;28;20051;-64
2023/05/25 03:58:43;;;;;;;7.68;6.97;;;14.50;99.90;;;;;;4987413;28;20108;-65
2023/05/25 04:01:12;;;;;;;7.30;6.60;;;14.50;99.90;;;;;;4995484;28;20057;-62
2023/05/25 04:03:39;;;;;;;8.23;6.88;;;14.50;99.90;;;;;;4986674;28;20058;-64
2023/05/25 04:06:06;;;;;;;6.18;5.65;;;14.50;99.90;;;;;;4988191;28;20047;-63
2023/05/25 04:08:33;;;;;;;11.52;6.85;;;14.50;99.90;;;;;;4988401;28;20116;-64
2023/05/25 04:11:01;;;;;;;7.22;6.63;;;14.50;99.90;;;;;;5003907;28;20069;-68
2023/05/25 04:13:27;;;;;;;8.50;6.30;;;14.50;99.90;;;;;;4988583;28;20120;-64
2023/05/25 04:15:54;;;;;;;7.38;6.28;;;14.60;99.90;;;;;;4985590;28;20057;-65
2023/05/25 04:18:26;;;;;;;7.35;6.68;;;14.60;99.90;;;;;;4987444;28;20746;-68
2023/05/25 04:20:56;;;;;;;8.70;6.60;;;14.60;99.90;;;;;;4989171;28;20116;-67
2023/05/25 04:23:23;;;;;;;7.13;6.43;;;14.60;99.90;;;;;;4983646;28;20104;-66
2023/05/25 04:25:52;;;;;;;6.80;6.15;;;14.60;99.90;;;;;;4988621;28;20100;-63
2023/05/25 04:28:19;;;;;;;8.27;6.57;;;14.60;99.90;;;;;;5002537;28;20065;-64
2023/05/25 04:31:00;;;;;;;7.18;6.57;;;14.50;99.90;;;;;;4985402;28;20093;-65
2023/05/25 04:33:37;;;;;;;8.00;6.30;;;14.50;99.90;;;;;;4995956;28;20145;-70
2023/05/25 04:36:33;;;;;;;9.77;8.77;;;14.40;99.90;;;;;;4973513;28;20046;-66
2023/05/25 04:39:04;;;;;;;8.45;7.38;;;14.40;99.90;;;;;;5004332;28;20528;-64
2023/05/25 04:41:34;;;;;;;12.15;7.20;;;14.30;99.90;;;;;;4983128;28;20582;-71
2023/05/25 04:44:04;;;;;;;9.45;7.90;;;14.20;99.90;;;;;;4998064;28;20420;-73
2023/05/25 04:46:43;;;;;;;8.07;6.28;;;14.20;99.90;;;;;;4986503;28;20125;-64
2023/05/25 04:49:20;;;;;;;7.18;6.38;;;14.20;99.90;;;;;;5000228;28;20055;-66
2023/05/25 04:51:47;;;;;;;7.13;6.45;;;14.10;99.90;;;;;;4999941;28;20050;-70
2023/05/25 04:54:14;;;;;;;8.82;6.53;;;14.10;99.90;;;;;;4986867;28;20046;-66
2023/05/25 04:56:42;;;;;;;10.25;7.38;;;14.00;99.90;;;;;;4986746;28;20101;-64
2023/05/25 04:59:09;;;;;;;15.23;7.18;;;14.00;99.90;;;;;;4987224;28;20742;-66
2023/05/25 05:01:45;;;;;;;9.60;7.80;;;14.00;99.90;;;;;;4987269;28;20050;-63
2023/05/25 05:04:15;;;;;;;8.57;7.10;;;14.00;99.90;;;;;;4974620;28;20059;-64
2023/05/25 05:06:43;;;;;;;7.32;6.72;;;14.00;99.90;;;;;;4988733;28;20050;-66
2023/05/25 05:09:16;;;;;;;7.40;6.55;;;14.00;99.90;;;;;;4997528;28;20058;-63
2023/05/25 05:11:43;;;;;;;7.55;6.85;;;13.90;99.90;;;;;;4985728;28;20062;-68
2023/05/25 05:14:12;;;;;;;8.05;7.38;;;13.90;99.90;;;;;;4987198;28;20563;-74
2023/05/25 05:16:41;;;;;;;7.30;6.60;;;14.00;99.90;;;;;;4978815;28;20149;-66
2023/05/25 05:19:08;;;;;;;7.80;7.03;;;14.00;99.90;;;;;;4984721;28;20089;-73
2023/05/25 05:21:35;;;;;;;8.18;7.38;;;14.00;99.90;;;;;;4985638;28;20050;-62
2023/05/25 05:24:05;;;;;;;10.45;6.78;;;14.00;99.90;;;;;;4983584;28;20065;-73
2023/05/25 05:26:31;;;;;;;6.90;6.38;;;14.10;99.90;;;;;;4979447;28;20059;-64
2023/05/25 05:29:19;;;;;;;7.78;6.70;;;14.10;99.90;;;;;;4987454;28;20054;-72
2023/05/25 05:31:46;;;;;;;8.85;7.95;;;14.10;99.90;;;;;;5001557;28;20097;-62
2023/05/25 05:34:13;;;;;;;8.55;7.68;;;14.20;99.90;;;;;;4999874;28;20074;-64
2023/05/25 05:36:40;;;;;;;7.10;6.50;;;14.20;99.90;;;;;;5001613;28;20046;-64
2023/05/25 05:39:23;;;;;;;7.18;6.30;;;14.20;99.90;;;;;;4986819;28;20080;-67
2023/05/25 05:41:50;;;;;;;11.00;6.97;;;14.20;99.90;;;;;;5001008;28;20050;-72
2023/05/25 05:44:22;;;;;;;19.38;9.15;;;14.30;99.90;;;;;;4997779;28;20058;-72
2023/05/25 05:46:58;;;;;;;8.05;6.25;;;14.40;99.90;;;;;;4987578;28;20081;-63
2023/05/25 05:49:28;;;;;;;7.05;6.07;;;14.40;99.90;;;;;;4996763;28;20081;-69
2023/05/25 05:51:56;;;;;;;7.03;6.25;;;14.40;99.90;;;;;;4985196;28;20085;-65
2023/05/25 05:54:23;;;;;;;7.93;6.78;;;14.40;99.90;;;;;;4985017;28;20477;-70
2023/05/25 05:56:50;;;;;;;7.60;6.85;;;14.40;99.90;;;;;;4987807;28;20109;-69
2023/05/25 05:59:17;;;;;;;7.95;7.25;;;14.40;99.90;;;;;;4985198;28;20070;-64
2023/05/25 06:01:44;;;;;;;7.95;7.15;;;14.40;99.90;;;;;;4986090;28;20085;-63
2023/05/25 06:04:12;;;;;;;7.80;6.25;;;14.40;99.90;;;;;;4983962;28;20113;-69
2023/05/25 06:06:40;;;;;;;9.18;6.90;;;14.50;99.90;;;;;;4988048;28;20054;-71
2023/05/25 06:09:08;;;;;;;7.03;6.30;;;14.60;99.90;;;;;;4998300;28;20108;-64
2023/05/25 06:11:36;;;;;;;7.40;6.18;;;14.60;99.90;;;;;;4982831;28;21509;-71
2023/05/25 06:14:03;;;;;;;6.75;5.75;;;14.70;99.90;;;;;;4983491;28;20098;-69
2023/05/25 06:16:30;;;;;;;8.90;7.75;;;14.70;99.90;;;;;;4984663;28;20252;-68
2023/05/25 06:18:57;;;;;;;7.07;6.47;;;14.70;99.90;;;;;;4982159;28;20129;-62
2023/05/25 06:21:24;;;;;;;6.88;6.10;;;14.80;99.90;;;;;;4986384;28;20053;-63
2023/05/25 06:23:51;;;;;;;6.68;6.07;;;14.90;99.90;;;;;;4979181;28;20130;-67
2023/05/25 06:26:18;;;;;;;6.88;5.80;;;14.80;99.90;;;;;;4990535;28;20050;-71
2023/05/25 06:28:46;;;;;;;6.53;6.03;;;14.80;99.90;;;;;;4984103;28;20093;-63
2023/05/25 06:31:13;;;;;;;7.43;5.68;;;14.80;99.90;;;;;;4986795;28;20113;-68
2023/05/25 06:33:40;;;;;;;7.97;6.20;;;14.70;99.90;;;;;;4982806;28;20373;-68
2023/05/25 06:36:08;;;;;;;7.47;6.68;;;14.70;99.90;;;;;;4985212;28;20057;-65
2023/05/25 06:38:35;;;;;;;6.63;5.93;;;14.60;99.90;;;;;;4983998;28;20141;-64
2023/05/25 06:41:04;;;;;;;6.20;5.70;;;14.60;99.90;;;;;;4985495;28;20103;-66
2023/05/25 06:43:31;;;;;;;6.97;5.57;;;14.50;99.90;;;;;;4983972;28;20058;-64
2023/05/25 06:46:10;;;;;;;6.53;5.93;;;14.60;99.90;;;;;;4999407;28;20133;-73
2023/05/25 06:48:38;;;;;;;8.85;6.53;;;14.60;99.90;;;;;;4985712;28;20069;-69
2023/05/25 06:51:05;;;;;;;7.05;6.35;;;14.60;99.90;;;;;;4971655;28;20054;-63
2023/05/25 06:53:32;;;;;;;6.63;5.97;;;14.50;99.90;;;;;;4983232;28;20580;-68
2023/05/25 06:55:59;;;;;;;6.47;5.85;;;14.50;99.90;;;;;;4984139;28;20081;-68
2023/05/25 06:58:26;;;;;;;6.55;5.65;;;14.50;99.90;;;;;;4987426;28;20054;-67
2023/05/25 07:00:53;;;;;;;6.22;5.63;;;14.50;99.90;;;;;;4985456;28;20071;-67
2023/05/25 07:03:20;;;;;;;7.13;6.43;;;14.60;99.90;;;;;;4986238;28;20050;-64
2023/05/25 07:05:47;;;;;;;7.75;5.53;;;14.60;99.90;;;;;;4997313;28;20062;-72
2023/05/25 07:08:14;;;;;;;7.85;6.30;;;14.60;99.90;;;;;;4988899;28;20117;-69
2023/05/25 07:10:41;;;;;;;6.65;6.05;;;14.50;99.90;;;;;;4989251;28;20046;-63
2023/05/25 07:13:10;;;;;;;6.43;5.90;;;14.40;99.90;;;;;;4988923;28;20463;-67
2023/05/25 07:15:36;;;;;;;7.82;6.47;;;14.30;99.90;;;;;;4989135;28;20890;-67
2023/05/25 07:18:03;;;;;;;6.50;5.90;;;14.20;99.90;;;;;;4987961;28;20521;-62
2023/05/25 07:20:32;;;;;;;6.65;6.05;;;14.20;99.90;;;;;;4991110;28;20058;-62
2023/05/25 07:23:00;;;;;;;8.10;5.75;;;14.30;99.90;;;;;;4990074;28;20072;-73
2023/05/25 07:25:27;;;;;;;10.27;6.78;;;14.20;99.90;;;;;;4987455;28;20055;-63
2023/05/25 07:27:54;;;;;;;8.77;5.70;;;14.30;99.90;;;;;;4988683;28;20057;-67
2023/05/25 07:30:21;;;;;;;10.43;5.80;;;14.30;99.90;;;;;;4990266;28;20128;-71
2023/05/25 07:32:47;;;;;;;7.18;5.25;;;14.30;99.90;;;;;;4987961;28;20138;-64
2023/05/25 07:35:14;;;;;;;6.43;5.82;;;14.30;99.90;;;;;;4984991;28;20119;-65
2023/05/25 07:37:41;;;;;;;8.35;6.13;;;14.40;99.90;;;;;;4987972;28;20088;-69
2023/05/25 07:40:09;;;;;;;7.90;5.80;;;14.40;99.90;;;;;;4988851;28;20078;-62
2023/05/25 07:42:36;;;;;;;7.53;5.68;;;14.40;99.90;;;;;;4989504;28;20066;-70
2023/05/25 07:45:03;;;;;;;7.00;6.30;;;14.40;99.90;;;;;;4988261;28;20062;-73
2023/05/25 07:47:30;;;;;;;6.55;5.95;;;14.50;99.90;;;;;;4990214;28;20402;-70
2023/05/25 07:49:57;;;;;;;6.82;4.93;;;14.60;99.90;;;;;;4980977;28;20145;-64
2023/05/25 07:52:24;;;;;;;6.82;6.00;;;14.70;99.90;;;;;;4986529;28;20416;-66
2023/05/25 07:54:51;;;;;;;6.43;5.70;;;14.60;99.90;;;;;;4989178;28;20078;-64
2023/05/25 07:57:18;;;;;;;5.75;5.13;;;14.70;99.90;;;;;;4986905;28;20046;-66
2023/05/25 07:59:45;;;;;;;5.82;5.30;;;14.70;99.90;;;;;;4986654;28;20058;-65
2023/05/25 08:02:12;;;;;;;8.73;5.82;;;14.70;99.90;;;;;;4984951;28;20058;-67
2023/05/25 08:04:39;;;;;;;5.40;4.97;;;14.80;99.90;;;;;;4986408;28;20550;-63
2023/05/25 08:07:07;;;;;;;8.00;5.80;;;14.80;99.90;;;;;;4989081;28;20065;-65
2023/05/25 08:09:34;;;;;;;6.90;5.05;;;14.80;99.90;;;;;;4985549;28;20074;-68
2023/05/25 08:12:01;;;;;;;6.85;5.18;;;14.70;99.90;;;;;;4986885;28;20575;-70
2023/05/25 08:14:47;;;;;;;5.63;4.88;;;14.80;99.90;;;;;;4985924;28;20046;-67
2023/05/25 08:17:14;;;;;;;5.00;4.55;;;14.90;99.90;;;;;;4986703;28;20108;-70
2023/05/25 08:19:41;;;;;;;7.88;5.20;;;14.80;99.90;;;;;;4983914;28;20066;-63
2023/05/25 08:22:08;;;;;;;7.32;5.00;;;15.00;99.90;;;;;;4987832;28;20108;-62
2023/05/25 08:24:35;;;;;;;4.90;4.35;;;15.10;99.90;;;;;;4986503;28;20413;-72
2023/05/25 08:27:02;;;;;;;5.93;5.43;;;15.20;99.90;;;;;;4985101;28;20090;-63
2023/05/25 08:29:29;;;;;;;5.60;4.70;;;15.20;99.90;;;;;;4986860;28;20066;-63
2023/05/25 08:31:56;;;;;;;7.93;6.55;;;15.20;99.90;;;;;;4984476;28;20058;-71
2023/05/25 08:34:23;;;;;;;6.90;5.75;;;15.10;99.90;;;;;;4986089;28;20093;-66
2023/05/25 08:36:50;;;;;;;5.32;4.82;;;15.30;99.90;;;;;;4988381;28;20401;-64
2023/05/25 08:39:17;;;;;;;5.70;5.07;;;15.20;99.90;;;;;;4986563;28;20047;-69
2023/05/25 08:41:45;;;;;;;5.25;4.00;;;15.20;99.90;;;;;;4987380;28;20047;-67
2023/05/25 08:44:13;;;;;;;7.18;5.13;;;15.00;99.90;;;;;;4987573;28;20574;-69
2023/05/25 08:46:40;;;;;;;6.47;5.75;;;15.00;99.90;;;;;;4986126;28;20054;-67
2023/05/25 08:49:08;;;;;;;7.43;5.53;;;15.10;99.90;;;;;;4985471;28;20057;-73
2023/05/25 08:51:37;;;;;;;5.22;4.72;;;15.00;99.90;;;;;;4984340;28;20146;-63
2023/05/25 08:54:08;;;;;;;4.78;4.38;;;15.00;99.90;;;;;;4987889;28;20160;-69
2023/05/25 08:56:40;;;;;;;9.75;5.45;;;15.10;99.90;;;;;;4986944;28;20058;-65
2023/05/25 08:59:15;;;;;;;7.57;5.18;;;15.20;99.90;;;;;;4985837;28;20046;-66
2023/05/25 09:01:45;;;;;;;10.40;5.57;;;15.20;99.90;;;;;;4980693;28;20518;-65
2023/05/25 09:04:13;;;;;;;5.85;4.68;;;15.00;99.90;;;;;;4982376;28;20562;-67
2023/05/25 09:06:40;;;;;;;11.48;5.20;;;15.30;99.90;;;;;;4983875;28;20108;-65
2023/05/25 09:09:08;;;;;;;5.93;4.50;;;15.20;99.90;;;;;;4987115;28;20058;-69
2023/05/25 09:11:35;;;;;;;7.75;4.13;;;15.20;99.90;;;;;;4987166;28;20135;-71
2023/05/25 09:14:07;;;;;;;6.80;4.68;;;15.10;99.90;;;;;;4983268;28;20050;-67
2023/05/25 09:16:36;;;;;;;7.50;5.05;;;15.00;99.90;;;;;;4984416;28;20601;-64
2023/05/25 09:19:03;;;;;;;5.95;4.90;;;14.90;99.90;;;;;;4985138;28;20046;-63
2023/05/25 09:21:30;;;;;;;7.80;5.63;;;14.90;99.90;;;;;;4985963;28;20054;-71
2023/05/25 09:23:59;;;;;;;12.90;4.88;;;15.00;99.90;;;;;;4991363;28;20565;-67
2023/05/25 09:26:26;;;;;;;5.15;4.25;;;14.80;99.90;;;;;;4981911;28;20489;-65
2023/05/25 09:28:53;;;;;;;5.60;4.90;;;14.80;99.90;;;;;;4986873;28;20088;-71
2023/05/25 09:31:22;;;;;;;5.32;4.07;;;14.80;99.90;;;;;;4985772;28;20475;-72
2023/05/25 09:33:54;;;;;;;8.73;4.90;;;15.00;99.90;;;;;;4985830;28;20061;-64
2023/05/25 09:36:21;;;;;;;5.10;4.53;;;15.10;99.90;;;;;;4983975;28;20319;-67
2023/05/25 09:38:52;;;;;;;8.00;4.30;;;15.10;99.90;;;;;;4986562;28;20114;-64
2023/05/25 09:41:20;;;;;;;;;;;15.10;99.90;;;;;;4987994;28;20085;-68
2023/05/25 09:43:47;;;;;;;7.22;3.78;;;15.30;99.90;;;;;;4984904;28;20013;-65
2023/05/25 09:46:38;;;;;;;4.82;3.88;;;15.30;99.90;;;;;;4983458;28;20049;-67
2023/05/25 09:49:07;;;;;;;7.05;4.20;;;15.50;99.90;;;;;;4983408;28;20046;-75
2023/05/25 09:51:35;;;;;;;7.95;3.65;;;15.50;99.90;;;;;;4994432;28;20086;-70
2023/05/25 09:54:03;;;;;;;7.65;4.43;;;15.50;99.90;;;;;;4985782;28;20046;-64
2023/05/25 09:56:34;;;;;;;7.97;4.72;;;15.50;99.90;;;;;;4985538;28;20062;-64
2023/05/25 09:59:01;;;;;;;6.57;4.53;;;15.50;99.90;;;;;;4985276;28;20085;-65
2023/05/25 10:01:30;;;;;;;6.60;4.40;;;15.60;99.90;;;;;;4985793;28;20133;-72
2023/05/25 10:03:58;;;;;;;8.45;4.28;;;15.70;99.90;;;;;;4985521;28;20046;-70
2023/05/25 10:06:32;;;;;;;9.65;4.85;;;15.80;99.90;;;;;;4980320;28;20129;-68
2023/05/25 10:09:00;;;;;;;13.23;4.43;;;15.80;99.90;;;;;;4982519;28;20146;-68
2023/05/25 10:11:28;;;;;;;9.63;5.03;;;15.80;99.90;;;;;;4982426;28;20949;-67
2023/05/25 10:13:57;;;;;;;9.32;4.55;;;15.80;99.90;;;;;;4982461;28;20432;-67
2023/05/25 10:16:28;;;;;;;8.80;4.38;;;15.80;99.90;;;;;;4980533;28;20046;-66
2023/05/25 10:19:20;;;;;;;7.20;3.58;;;16.00;99.90;;;;;;4984169;28;20541;-69
2023/05/25 10:22:00;;;;;;;7.88;4.45;;;15.90;99.90;;;;;;4981026;28;20062;-77
2023/05/25 10:24:37;;;;;;;5.93;4.55;;;16.00;99.90;;;;;;4981332;28;20058;-67
2023/05/25 10:27:07;;;;;;;8.10;4.45;;;16.00;99.90;;;;;;4981895;28;20555;-66
2023/05/25 10:29:51;;;;;;;6.70;3.40;;;16.10;99.90;;;;;;4980088;28;20077;-65
2023/05/25 10:32:18;;;;;;;7.80;4.07;;;16.10;99.90;;;;;;4982913;28;20047;-66
2023/05/25 10:34:47;;;;;;;5.47;4.68;;;15.90;99.90;;;;;;4981808;28;20491;-63
2023/05/25 10:37:14;;;;;;;7.35;4.30;;;16.10;99.90;;;;;;4984144;28;20658;-66
2023/05/25 10:39:43;;;;;;;8.55;4.65;;;16.20;99.90;;;;;;4980781;28;20047;-63
2023/05/25 10:42:12;;;;;;;8.40;4.25;;;16.00;99.90;;;;;;4985794;28;20043;-67
2023/05/25 10:44:41;;;;;;;7.60;4.13;;;16.10;99.90;;;;;;4988476;28;20555;-68
2023/05/25 10:47:09;;;;;;;5.72;3.20;;;16.20;99.90;;;;;;4985597;28;20432;-65
2023/05/25 10:49:52;;;;;;;8.10;4.35;;;16.30;99.90;;;;;;4985041;28;20054;-71
2023/05/25 10:52:20;;;;;;;8.90;4.80;;;16.20;99.90;;;;;;4985862;28;20049;-71
2023/05/25 10:54:47;;;;;;;10.07;4.22;;;16.30;99.90;;;;;;4986757;28;20148;-70
2023/05/25 10:57:19;;;;;;;6.35;2.97;;;16.40;99.90;;;;;;4986409;28;20082;-72
2023/05/25 10:59:58;;;;;;;5.53;4.13;;;16.40;99.90;;;;;;4982578;28;20057;-64
2023/05/25 11:02:29;;;;;;;9.70;4.33;;;16.40;99.90;;;;;;4984415;28;20065;-65
2023/05/25 11:05:30;;;;;;;9.88;4.45;;;16.50;99.90;;;;;;4983799;28;20093;-66
2023/05/25 11:07:58;;;;;;;7.22;4.35;;;16.60;99.90;;;;;;4983595;28;20878;-64
2023/05/25 11:10:47;;;;;;;8.07;3.92;;;16.80;99.90;;;;;;4985368;28;20085;-67
2023/05/25 11:13:37;;;;;;;12.95;4.05;;;16.80;99.90;;;;;;4983666;28;20066;-68
2023/05/25 11:16:16;;;;;;;6.75;4.43;;;16.90;99.90;;;;;;4985185;28;20058;-63
2023/05/25 11:18:56;;;;;;;11.43;4.65;;;16.80;99.90;;;;;;4981450;28;20154;-66
2023/05/25 11:21:26;;;;;;;6.00;4.03;;;17.00;99.90;;;;;;4983005;28;20050;-67
2023/05/25 11:23:57;;;;;;;11.32;5.03;;;17.10;99.90;;;;;;4983743;28;20419;-72
2023/05/25 11:26:27;;;;;;;6.53;3.25;;;17.20;99.90;;;;;;4985170;28;20058;-64
2023/05/25 11:28:57;;;;;;;7.40;4.13;;;17.00;99.90;;;;;;4985769;28;20599;-73
2023/05/25 11:31:32;;;;;;;5.05;3.35;;;17.10;99.90;;;;;;4982686;28;20065;-65
2023/05/25 11:34:08;;;;;;;6.25;4.30;;;17.20;99.90;;;;;;4982416;28;20050;-72
2023/05/25 11:36:35;;;;;;;10.00;4.70;;;17.30;99.90;;;;;;4984377;28;20053;-66
2023/05/25 11:39:04;;;;;;;8.35;3.50;;;17.50;99.90;;;;;;4985069;28;20061;-63
2023/05/25 11:41:53;;;;;;;7.97;3.60;;;17.40;99.90;;;;;;4984045;28;20050;-73
2023/05/25 11:44:32;;;;;;;11.05;3.92;;;17.40;99.90;;;;;;4985641;28;20058;-67
2023/05/25 11:47:07;;;;;;;8.85;4.60;;;17.60;99.90;;;;;;4981255;28;20046;-75
2023/05/25 11:49:40;;;;;;;12.98;4.53;;;17.60;99.90;;;;;;4983913;28;20042;-64
2023/05/25 11:52:09;;;;;;;10.20;3.97;;;17.60;99.90;;;;;;4985618;28;20077;-71
2023/05/25 11:54:39;;;;;;;4.28;3.42;;;17.60;99.90;;;;;;4986739;28;20069;-63
2023/05/25 11:57:27;;;;;;;8.80;3.65;;;17.70;99.90;;;;;;4984123;28;20057;-69
2023/05/25 11:59:58;;;;;;;8.55;4.15;;;17.80;99.90;;;;;;4981595;28;20062;-67
2023/05/25 12:02:26;;;;;;;5.53;3.38;;;17.70;99.90;;;;;;4982911;28;20093;-66
2023/05/25 12:04:58;;;;;;;7.05;2.85;;;17.50;99.90;;;;;;4982326;28;20108;-66
2023/05/25 12:07:27;;;;;;;5.22;3.10;;;17.60;99.90;;;;;;4985722;28;20500;-64
2023/05/25 12:10:06;;;;;;;10.55;3.25;;;17.70;99.90;;;;;;4985100;28;20094;-68
2023/05/25 12:12:41;;;;;;;4.63;3.10;;;17.70;99.90;;;;;;4987859;28;20053;-62
2023/05/25 12:15:10;;;;;;;11.57;4.82;;;17.70;99.90;;;;;;4984099;28;20295;-69
2023/05/25 12:17:41;;;;;;;9.02;3.63;;;17.70;99.90;;;;;;4984804;28;20057;-65
2023/05/25 12:20:10;;;;;;;6.57;3.33;;;17.70;99.90;;;;;;4982403;28;20781;-65
2023/05/25 12:22:41;;;;;;;6.18;2.60;;;17.70;99.90;;;;;;4986068;28;20065;-67
2023/05/25 12:25:10;;;;;;;5.72;3.70;;;17.80;99.90;;;;;;4985662;28;20062;-64
2023/05/25 12:27:38;;;;;;;5.53;2.90;;;17.60;99.90;;;;;;4986198;28;20109;-65
2023/05/25 12:30:08;;;;;;;7.40;3.22;;;17.50;99.90;;;;;;4982562;28;20062;-64
2023/05/25 12:32:54;;;;;;;6.18;3.08;;;17.70;99.90;;;;;;4984389;28;20618;-63
2023/05/25 12:35:21;;;;;;;6.18;3.63;;;17.80;99.90;;;;;;4980369;28;20133;-68
2023/05/25 12:37:48;;;;;;;5.97;3.13;;;17.80;99.90;;;;;;4981111;28;20078;-63
2023/05/25 12:40:17;;;;;;;8.18;4.32;;;17.80;99.90;;;;;;4984742;28;20050;-68
2023/05/25 12:42:44;;;;;;;7.85;4.55;;;18.00;99.90;;;;;;4984864;28;20085;-68
2023/05/25 12:45:11;;;;;;;5.65;3.42;;;18.20;99.90;;;;;;4985122;28;20062;-62
2023/05/25 12:47:38;;;;;;;8.90;3.50;;;18.40;99.90;;;;;;4984062;28;20157;-64
2023/05/25 12:50:13;;;;;;;7.18;2.90;;;18.30;99.90;;;;;;4981041;28;20046;-66
2023/05/25 12:52:42;;;;;;;7.63;3.65;;;18.30;99.90;;;;;;4981925;28;20384;-65
2023/05/25 12:55:31;;;;;;;5.20;3.35;;;18.20;99.90;;;;;;4981761;28;20069;-69
2023/05/25 12:58:01;;;;;;;5.95;3.33;;;18.20;99.90;;;;;;4983601;28;20050;-63